メインページ
METAR-TAF:

METAR-TAF

空港 :

バグダード国際空港

バグダード, イラク

緯度: 33-15-45N, 経度: 44-14-04E, 海抜: 35m

現時点の気象観測

当レポートは27分前の12:00(UTC)に作成
の風 20kt
気温 23°C
湿度 61%
気圧 1010 hPa
視程: 4900m
高度2500ftの雲はほとんどない, 積乱雲.
高度3000ftの曇り
小雨

METAR: ORBI 211200Z 01020KT 4900 -RA FEW025CB OVC030 23/15 Q1010 NOSIG

時間: 15:27 (12:27 UTC)

予報

当レポートは2時間27分前の10:00(UTC)に作成
予報は21日の 12時(UTC)から 22日の 12時(UTC)まで有効
東/南東の風 20kt
視程: 4000m
高度2500ftの雲はほとんどない, 積乱雲.
高度3000ftの千切れ雲あり
21日の 20時(UTC)から 21日の 22時(UTC)まで徐々に
視程: 6000m

TAF: ORBI 211000Z 2112/2212 12020KT 4000 TSSHRA FEW025CB BKN030 BECMG 2120/2122 6000

4,000以上の空港の気象観測と天気予報(METAR報とTAF報)

利用可能な観測所は地図上に黄色い丸と赤い丸で示す。

丸の上にカーソルを重ねると観測所名を参照できる。

次にクリックすると気象観測と天気予報を参照できる。

マップの切り替え:黒色「×」印の緑ボタンをクリックして拡大、「-」印の緑ボタンをクリックして縮小、緑色の三角印をクリックして隣りの地図に切り替え


METAR-TAF: